Airfield :
LOGIN :

Register | Disclaimer

   EN    FR    IT 

 










Legend :    VFR   Marginal VFR   IFR   Intensive IFR   Very Intensive IFR
Visi :
Ceiling :
>= 8 km
>= 3000ft
5 to 8 km
1000 to 3000 ft
1500m to 5 km
500 to 1000 ft
800 to 1500m
200 to 500 ft
< 800m
< 200 ft
Symbols :   Thunderstorms  Fog  Heavy snow  Heavy precipitations  Wind > 20 kt
SIGMETs :     Misc.  Thunderstorms  Icing  Turbulence  Mountain Waves  Volcanic Ashes






- Airport Elevation : 1079 ft


ETIK - Illesheim Air Base

CURRENT METAR :
  • 250855Z AUTO 08007KT 9999 CLR 24/12 A2997 RMK AO2 SLP146 T02360116 57010

EXPIRED METARs :
  • 250755Z AUTO 04006KT 9999 CLR 22/13 A2999 RMK AO2 SLP153 T02190127
  • 250655Z AUTO 07004KT 9999 CLR 20/13 A3000 RMK AO2 SLP156 T01990129 $
  • 250555Z AUTO 00000KT 9999 CLR 17/13 A3001 RMK AO2 SLP159 T01720125 10172 20098 58001 $
  • 250455Z AUTO 00000KT 9999 CLR 15/12 A3001 RMK AO2 SLP160 T01520121

TAF TAF ETIK
Valid from the 25 at 06:00 until the 26 at 12:00 UTC


250600Z 2506/2612 VRB06KT 9999 SKC QNH2999INS
BECMG 2508/2509 08010G15KT 9999 FEW080 QNH2989INS
BECMG 2517/2518 VRB06KT 9999 SCT040 SCT060 QNH2986INS
BECMG 2602/2603 VRB06KT 6000 BR FEW020 SCT060 QNH2987INS
BECMG 2605/2606 VRB06KT 9999 NSW FEW030 SCT050 QNH2985INS
BECMG 2608/2609 08009KT 9999 SCT030 BKN050 QNH2983INS TX27/2515Z TN15/2604Z



MET'MAP, your aeronautical weather chart ! - Copyright ORBIFLY December 2007 - Disclaimer

ORBIFLY MET'MAP TEAM :

Programming & Development : Alexandra Zaïnal
Original concept : Baudouin d'Aumeries
Technical & hardware support : Manuel Goepfert
Assistance : Marc-Olivier Méhu




SOURCES & CREDITS :

   NOAA